createdAt,value
2023-05-19T00:01:37.702Z,11.82
2023-05-19T00:04:05.512Z,15.13
2023-05-19T00:06:33.266Z,12.50
2023-05-19T00:09:03.745Z,13.52
2023-05-19T00:11:31.133Z,12.68
2023-05-19T00:14:00.487Z,13.23
2023-05-19T00:16:29.800Z,14.63
2023-05-19T00:19:00.207Z,13.32
2023-05-19T00:21:28.503Z,13.10
2023-05-19T00:23:56.251Z,14.02
2023-05-19T00:26:24.628Z,13.13
2023-05-19T00:28:57.525Z,12.37
2023-05-19T00:31:25.071Z,14.77
2023-05-19T00:33:52.391Z,14.07
2023-05-19T00:36:19.689Z,16.65
2023-05-19T00:38:46.854Z,14.38
2023-05-19T00:41:14.319Z,17.10
2023-05-19T00:43:41.560Z,15.23
2023-05-19T00:46:08.917Z,15.45
2023-05-19T00:48:36.367Z,17.02
2023-05-19T00:51:06.545Z,14.48
2023-05-19T00:53:34.908Z,15.37
2023-05-19T00:56:03.379Z,14.40
2023-05-19T00:58:32.532Z,18.27
2023-05-19T01:01:05.260Z,19.83
2023-05-19T01:03:37.403Z,16.65
2023-05-19T01:06:07.935Z,19.13
2023-05-19T01:08:37.405Z,18.77
2023-05-19T01:11:08.296Z,19.20
2023-05-19T01:13:36.939Z,17.73
2023-05-19T01:16:15.273Z,21.80
2023-05-19T01:19:21.123Z,19.33
2023-05-19T01:22:01.186Z,21.17
2023-05-19T01:24:54.980Z,19.90
2023-05-19T01:27:43.749Z,18.55
2023-05-19T01:30:33.895Z,22.50
2023-05-19T01:33:04.640Z,23.53
2023-05-19T01:35:33.408Z,21.83
2023-05-19T01:38:02.204Z,21.45
2023-05-19T01:40:31.158Z,25.85
2023-05-19T01:43:00.492Z,22.08
2023-05-19T01:45:33.034Z,25.87
2023-05-19T01:48:02.699Z,22.42
2023-05-19T01:50:31.192Z,22.15
2023-05-19T01:52:59.376Z,24.90
2023-05-19T01:55:27.913Z,28.70
2023-05-19T01:58:20.809Z,28.13
2023-05-19T02:01:07.919Z,26.05
2023-05-19T02:03:44.246Z,24.42
2023-05-19T02:06:34.968Z,26.70
2023-05-19T02:09:08.995Z,26.55
2023-05-19T02:11:50.556Z,24.77
2023-05-19T02:14:39.100Z,26.00
2023-05-19T02:17:06.670Z,43.65
2023-05-19T02:19:38.183Z,26.10
2023-05-19T02:22:06.088Z,23.55
2023-05-19T02:24:33.290Z,26.40
2023-05-19T02:27:00.595Z,24.13
2023-05-19T02:29:27.941Z,23.35
2023-05-19T02:31:55.366Z,20.73
2023-05-19T02:34:22.985Z,22.73
2023-05-19T02:36:50.726Z,22.30
2023-05-19T02:39:17.997Z,17.05
2023-05-19T02:41:45.417Z,20.10
2023-05-19T02:44:12.588Z,16.38
2023-05-19T02:46:39.945Z,17.95
2023-05-19T02:49:07.460Z,18.30
2023-05-19T02:51:34.742Z,19.00
2023-05-19T02:54:02.671Z,16.58
2023-05-19T02:56:29.969Z,16.88
2023-05-19T02:58:58.493Z,15.90
2023-05-19T03:01:25.740Z,18.00
2023-05-19T03:03:53.118Z,17.70
2023-05-19T03:06:23.252Z,17.33
2023-05-19T03:08:51.260Z,18.65
2023-05-19T03:11:18.574Z,18.40
2023-05-19T03:14:04.387Z,18.13
2023-05-19T03:16:32.524Z,16.13
2023-05-19T03:19:00.235Z,17.23
2023-05-19T03:21:27.809Z,18.20
2023-05-19T03:23:55.052Z,16.08
2023-05-19T03:26:23.154Z,16.17
2023-05-19T03:28:50.914Z,17.10
2023-05-19T03:31:18.509Z,17.23
2023-05-19T03:33:45.783Z,21.95
2023-05-19T03:36:13.285Z,16.77
2023-05-19T03:38:40.571Z,16.87
2023-05-19T03:41:07.878Z,16.63
2023-05-19T03:43:35.244Z,19.60
2023-05-19T03:46:05.171Z,16.80
2023-05-19T03:48:51.527Z,16.15
2023-05-19T03:51:29.980Z,17.83
2023-05-19T03:54:04.609Z,15.20
2023-05-19T03:56:32.841Z,15.70
2023-05-19T03:59:00.408Z,17.60
2023-05-19T04:01:27.781Z,16.00
2023-05-19T04:03:55.123Z,14.43
2023-05-19T04:06:24.152Z,14.18
2023-05-19T04:08:51.350Z,14.25
2023-05-19T04:11:20.076Z,14.32
2023-05-19T04:13:47.286Z,15.57
2023-05-19T04:16:14.873Z,14.47
2023-05-19T04:18:42.567Z,15.02
2023-05-19T04:21:09.854Z,14.05
2023-05-19T04:23:38.700Z,14.07
2023-05-19T04:26:06.741Z,13.05
2023-05-19T04:28:36.753Z,16.20
2023-05-19T04:31:04.129Z,14.88
2023-05-19T04:33:31.312Z,12.52
2023-05-19T04:35:59.073Z,13.88
2023-05-19T04:38:26.291Z,13.20
2023-05-19T04:40:53.611Z,12.17
2023-05-19T04:43:22.328Z,12.38
2023-05-19T04:45:51.546Z,14.30
2023-05-19T04:48:23.893Z,11.55
2023-05-19T04:50:52.036Z,13.43
2023-05-19T04:53:21.769Z,12.93
2023-05-19T04:55:50.294Z,12.95
2023-05-19T04:58:18.437Z,13.27
2023-05-19T05:00:46.337Z,11.18
2023-05-19T05:03:14.739Z,11.52
2023-05-19T05:05:42.182Z,9.97
2023-05-19T05:08:11.258Z,14.30
2023-05-19T05:10:42.926Z,11.25
2023-05-19T05:13:11.821Z,14.32
2023-05-19T05:15:39.712Z,10.15
2023-05-19T05:18:07.660Z,17.13
2023-05-19T05:20:35.735Z,11.30
2023-05-19T05:23:03.208Z,10.32
2023-05-19T05:25:32.495Z,8.10
2023-05-19T05:28:04.958Z,8.77
2023-05-19T05:30:36.736Z,8.77
2023-05-19T05:33:06.360Z,7.85
2023-05-19T05:35:37.492Z,6.85
2023-05-19T05:38:06.740Z,7.35
2023-05-19T05:40:34.915Z,7.35
2023-05-19T05:43:03.713Z,7.87
2023-05-19T05:45:34.663Z,6.78
2023-05-19T05:48:02.795Z,4.90
2023-05-19T05:50:31.879Z,8.15
2023-05-19T05:53:01.521Z,8.68
2023-05-19T05:55:29.175Z,6.37
2023-05-19T05:57:57.054Z,7.35
2023-05-19T06:00:28.148Z,6.70
2023-05-19T06:02:57.299Z,6.00
2023-05-19T06:05:26.532Z,5.85
2023-05-19T06:07:54.846Z,5.53
2023-05-19T06:10:26.199Z,7.15
2023-05-19T06:12:55.254Z,5.32
2023-05-19T06:15:23.764Z,5.25
2023-05-19T06:18:09.333Z,6.65
2023-05-19T06:20:36.646Z,6.83
2023-05-19T06:23:03.882Z,8.18
2023-05-19T06:25:31.391Z,7.50
2023-05-19T06:27:58.814Z,6.78
2023-05-19T06:30:26.509Z,7.70
2023-05-19T06:33:04.997Z,6.70
2023-05-19T06:35:32.826Z,6.07
2023-05-19T06:38:00.034Z,6.60
2023-05-19T06:40:27.347Z,6.00
2023-05-19T06:42:55.107Z,7.93
2023-05-19T06:45:32.141Z,5.57
2023-05-19T06:48:02.004Z,7.20
2023-05-19T06:50:30.008Z,7.97
2023-05-19T06:52:58.509Z,5.65
2023-05-19T06:55:26.132Z,5.60
2023-05-19T06:57:53.368Z,5.97
2023-05-19T07:00:30.595Z,5.93
2023-05-19T07:02:58.403Z,6.63
2023-05-19T07:05:25.769Z,5.68
2023-05-19T07:07:56.885Z,5.95
2023-05-19T07:10:27.853Z,7.27
2023-05-19T07:12:56.185Z,5.60
2023-05-19T07:15:26.094Z,7.53
2023-05-19T07:17:54.257Z,7.82
2023-05-19T07:20:21.740Z,5.90
2023-05-19T07:22:49.042Z,7.33
2023-05-19T07:25:16.418Z,5.20
2023-05-19T07:27:46.846Z,5.28
2023-05-19T07:30:14.346Z,5.88
2023-05-19T07:32:41.654Z,7.90
2023-05-19T07:35:09.112Z,7.00
2023-05-19T07:37:36.518Z,7.15
2023-05-19T07:40:04.947Z,7.80
2023-05-19T07:42:32.378Z,7.35
2023-05-19T07:44:59.800Z,6.45
2023-05-19T07:47:27.254Z,6.90
2023-05-19T07:49:54.578Z,5.53
2023-05-19T07:52:22.035Z,6.07
2023-05-19T07:54:49.324Z,6.32
2023-05-19T07:57:16.726Z,6.13
2023-05-19T07:59:44.013Z,5.67
2023-05-19T08:02:11.429Z,5.50
2023-05-19T08:04:38.911Z,6.20
2023-05-19T08:07:06.278Z,4.57
2023-05-19T08:09:33.748Z,6.65
2023-05-19T08:12:01.747Z,6.20
2023-05-19T08:14:29.154Z,6.22
2023-05-19T08:16:56.383Z,7.65
2023-05-19T08:19:24.361Z,6.07
2023-05-19T08:21:51.630Z,4.50
2023-05-19T08:24:19.187Z,5.93
2023-05-19T08:26:46.444Z,6.68
2023-05-19T08:29:13.628Z,7.07
2023-05-19T08:31:41.008Z,6.07
2023-05-19T08:34:08.368Z,6.03
2023-05-19T08:36:35.586Z,5.77
2023-05-19T08:39:03.327Z,5.75
2023-05-19T08:41:30.487Z,4.07
2023-05-19T08:43:57.867Z,5.93
2023-05-19T08:46:26.238Z,6.20
2023-05-19T08:48:58.678Z,7.47
2023-05-19T08:51:32.040Z,4.60
2023-05-19T08:54:16.023Z,5.97
2023-05-19T08:56:44.756Z,5.03
2023-05-19T08:59:14.346Z,6.53
2023-05-19T09:01:45.787Z,5.53
2023-05-19T09:04:13.485Z,7.20
2023-05-19T09:06:45.123Z,5.63
2023-05-19T09:09:12.597Z,5.25
2023-05-19T09:11:39.806Z,6.13
2023-05-19T09:14:07.111Z,4.90
2023-05-19T09:16:34.764Z,4.45
2023-05-19T09:19:02.145Z,4.70
2023-05-19T09:21:31.213Z,5.20
2023-05-19T09:24:06.267Z,6.60
2023-05-19T09:26:41.288Z,6.07
2023-05-19T09:29:18.205Z,4.90
2023-05-19T09:31:50.599Z,6.35
2023-05-19T09:34:18.559Z,5.85
2023-05-19T09:36:49.519Z,5.72
2023-05-19T09:39:17.499Z,6.53
2023-05-19T09:41:45.057Z,6.05
2023-05-19T09:44:28.923Z,7.80
2023-05-19T09:46:57.353Z,5.88
2023-05-19T09:49:26.598Z,5.57
2023-05-19T09:51:54.651Z,5.30
2023-05-19T09:54:23.753Z,4.63
2023-05-19T09:57:07.096Z,5.00
2023-05-19T09:59:36.565Z,5.68
2023-05-19T10:02:04.078Z,4.30
2023-05-19T10:04:31.710Z,5.40
2023-05-19T10:07:05.539Z,4.43
2023-05-19T10:09:34.248Z,4.38
2023-05-19T10:12:02.490Z,5.03
2023-05-19T10:14:29.984Z,4.95
2023-05-19T10:16:59.013Z,7.53
2023-05-19T10:19:28.855Z,5.43
2023-05-19T10:21:56.895Z,5.15
2023-05-19T10:24:24.277Z,5.75
2023-05-19T10:26:57.848Z,6.35
2023-05-19T10:29:31.868Z,4.63
2023-05-19T10:32:02.577Z,4.40
2023-05-19T10:34:59.629Z,7.38
2023-05-19T10:37:46.697Z,5.22
2023-05-19T10:40:45.930Z,8.45
2023-05-19T10:43:39.839Z,6.27
2023-05-19T10:46:07.177Z,4.90
2023-05-19T10:48:37.381Z,6.85
2023-05-19T10:51:05.266Z,10.00
2023-05-19T10:53:33.764Z,5.75
2023-05-19T10:56:07.715Z,5.70
2023-05-19T10:58:44.205Z,4.85
2023-05-19T11:01:16.966Z,5.97
2023-05-19T11:03:54.597Z,7.10
2023-05-19T11:06:38.154Z,5.03
2023-05-19T11:09:17.939Z,7.37
2023-05-19T11:11:45.307Z,6.63
2023-05-19T11:14:15.258Z,6.10
2023-05-19T11:16:43.280Z,5.30
2023-05-19T11:19:27.620Z,5.82
2023-05-19T11:21:55.835Z,4.37
2023-05-19T11:24:54.283Z,5.25
2023-05-19T11:27:31.314Z,6.05
2023-05-19T11:30:02.003Z,5.03
2023-05-19T11:32:31.854Z,5.22
2023-05-19T11:35:00.830Z,8.90
2023-05-19T11:37:32.323Z,5.97
2023-05-19T11:40:07.622Z,5.93
2023-05-19T11:42:36.246Z,4.60
2023-05-19T11:45:05.001Z,7.20
2023-05-19T11:47:45.929Z,6.70
2023-05-19T11:50:20.466Z,4.70
2023-05-19T11:52:48.219Z,6.28
2023-05-19T11:55:22.052Z,5.45
2023-05-19T11:58:03.788Z,6.10
2023-05-19T12:00:39.709Z,5.47
2023-05-19T12:03:08.168Z,5.10
2023-05-19T12:05:45.505Z,5.25
2023-05-19T12:08:13.256Z,6.32
2023-05-19T12:10:40.990Z,6.80
2023-05-19T12:13:09.958Z,5.03
2023-05-19T12:15:37.796Z,5.32
2023-05-19T12:18:05.739Z,4.93
2023-05-19T12:20:35.801Z,7.55
2023-05-19T12:23:04.130Z,5.40
2023-05-19T12:25:32.181Z,10.23
2023-05-19T12:28:03.361Z,8.15
2023-05-19T12:30:32.194Z,8.20
2023-05-19T12:33:00.077Z,7.38
2023-05-19T12:35:29.087Z,6.45
2023-05-19T12:37:56.407Z,5.30
2023-05-19T12:40:23.748Z,8.77
2023-05-19T12:42:53.428Z,5.38
2023-05-19T12:45:23.248Z,5.30
2023-05-19T12:47:52.835Z,6.45
2023-05-19T12:50:20.361Z,5.93
2023-05-19T12:52:52.064Z,5.20
2023-05-19T12:55:21.086Z,6.57
2023-05-19T12:58:00.052Z,6.88
2023-05-19T13:00:32.518Z,8.10
2023-05-19T13:03:05.706Z,6.20
2023-05-19T13:05:43.478Z,5.00
2023-05-19T13:08:16.269Z,5.30
2023-05-19T13:10:44.912Z,5.20
2023-05-19T13:13:13.055Z,7.78
2023-05-19T13:15:44.966Z,8.53
2023-05-19T13:18:13.825Z,6.03
2023-05-19T13:20:42.590Z,6.20
2023-05-19T13:23:11.471Z,5.20
2023-05-19T13:25:39.198Z,7.25
2023-05-19T13:28:06.769Z,9.33
2023-05-19T13:30:36.038Z,4.65
2023-05-19T13:33:03.817Z,5.13
2023-05-19T13:35:36.951Z,5.80
2023-05-19T13:38:12.091Z,7.07
2023-05-19T13:40:40.107Z,7.43
2023-05-19T13:43:08.629Z,5.63
2023-05-19T13:45:36.551Z,7.50
2023-05-19T13:48:04.166Z,5.20
2023-05-19T13:50:31.713Z,4.53
2023-05-19T13:52:59.127Z,5.20
2023-05-19T13:55:27.546Z,5.28
2023-05-19T13:57:54.829Z,4.97
2023-05-19T14:00:22.381Z,4.88
2023-05-19T14:02:49.852Z,5.35
2023-05-19T14:05:17.332Z,5.93
2023-05-19T14:07:44.793Z,6.85
2023-05-19T14:10:12.145Z,6.10
2023-05-19T14:12:49.339Z,7.95
2023-05-19T14:15:26.848Z,4.70
2023-05-19T14:17:54.148Z,6.10
2023-05-19T14:20:21.862Z,6.55
2023-05-19T14:22:49.087Z,6.65
2023-05-19T14:25:16.426Z,7.88
2023-05-19T14:27:43.594Z,6.40
2023-05-19T14:30:11.124Z,6.17
2023-05-19T14:32:39.464Z,4.97
2023-05-19T14:35:07.162Z,8.15
2023-05-19T14:37:34.376Z,5.35
2023-05-19T14:40:01.804Z,4.78
2023-05-19T14:42:28.974Z,6.07
2023-05-19T14:44:56.364Z,6.00
2023-05-19T14:47:24.376Z,8.27
2023-05-19T14:49:52.877Z,6.70
2023-05-19T14:52:20.123Z,5.05
2023-05-19T14:54:47.390Z,7.73
2023-05-19T14:57:14.600Z,5.75
2023-05-19T14:59:41.960Z,7.15
2023-05-19T15:02:09.168Z,10.43
2023-05-19T15:04:36.463Z,6.07
2023-05-19T15:09:33.831Z,6.45
2023-05-19T15:12:01.354Z,5.53
2023-05-19T15:14:30.425Z,5.88
2023-05-19T15:16:58.761Z,5.88
2023-05-19T15:19:26.446Z,6.60
2023-05-19T15:21:54.223Z,5.68
2023-05-19T15:24:21.608Z,7.88
2023-05-19T15:26:48.916Z,5.82
2023-05-19T15:29:16.432Z,5.85
2023-05-19T15:31:43.874Z,7.10
2023-05-19T15:34:11.212Z,4.65
2023-05-19T15:36:38.581Z,5.03
2023-05-19T15:39:06.515Z,7.97
2023-05-19T15:41:33.915Z,5.97
2023-05-19T15:44:02.422Z,4.90
2023-05-19T15:46:30.223Z,5.90
2023-05-19T15:48:57.543Z,7.05
2023-05-19T15:51:25.158Z,4.90
2023-05-19T15:53:52.740Z,5.38
2023-05-19T15:56:20.052Z,5.37
2023-05-19T15:58:47.558Z,5.32
2023-05-19T16:01:16.149Z,5.68
2023-05-19T16:03:44.095Z,5.75
2023-05-19T16:06:11.562Z,7.53
2023-05-19T16:08:39.056Z,8.60
2023-05-19T16:11:06.257Z,8.38
2023-05-19T16:13:34.046Z,7.30
2023-05-19T16:16:01.695Z,6.30
2023-05-19T16:18:31.785Z,5.57
2023-05-19T16:20:59.067Z,7.90
2023-05-19T16:23:27.464Z,6.72
2023-05-19T16:25:54.910Z,5.55
2023-05-19T16:28:24.504Z,5.72
2023-05-19T16:30:52.192Z,5.75
2023-05-19T16:33:19.370Z,6.07
2023-05-19T16:35:46.590Z,5.97
2023-05-19T16:38:13.747Z,7.53
2023-05-19T16:40:41.076Z,8.00
2023-05-19T16:43:08.276Z,8.90
2023-05-19T16:45:35.560Z,5.57
2023-05-19T16:48:02.883Z,6.88
2023-05-19T16:50:30.343Z,7.03
2023-05-19T16:52:57.535Z,5.03
2023-05-19T16:55:25.456Z,8.85
2023-05-19T16:57:52.698Z,6.20
2023-05-19T17:00:20.097Z,5.80
2023-05-19T17:02:47.406Z,6.07
2023-05-19T17:05:14.867Z,5.10
2023-05-19T17:07:42.082Z,6.97
2023-05-19T17:10:09.632Z,6.13
2023-05-19T17:12:36.992Z,8.30
2023-05-19T17:15:04.720Z,6.03
2023-05-19T17:17:31.929Z,6.57
2023-05-19T17:19:59.776Z,5.80
2023-05-19T17:22:28.250Z,13.43
2023-05-19T17:24:57.580Z,12.27
2023-05-19T17:27:24.901Z,5.85
2023-05-19T17:29:52.143Z,7.05
2023-05-19T17:32:22.196Z,8.40
2023-05-19T17:34:49.629Z,7.00
2023-05-19T17:37:19.141Z,6.97
2023-05-19T17:39:46.392Z,5.63
2023-05-19T17:42:13.710Z,10.38
2023-05-19T17:44:41.371Z,6.93
2023-05-19T17:47:08.617Z,7.33
2023-05-19T17:49:36.076Z,8.13
2023-05-19T17:52:03.593Z,7.88
2023-05-19T17:54:30.944Z,7.00
2023-05-19T17:57:01.628Z,8.23
2023-05-19T17:59:30.195Z,7.80
2023-05-19T18:01:57.701Z,7.18
2023-05-19T18:04:25.541Z,6.78
2023-05-19T18:06:53.243Z,9.15
2023-05-19T18:09:23.304Z,7.13
2023-05-19T18:11:50.683Z,6.50
2023-05-19T18:14:18.220Z,7.03
2023-05-19T18:16:45.518Z,11.88
2023-05-19T18:19:12.956Z,7.97
2023-05-19T18:21:40.241Z,7.18
2023-05-19T18:24:07.466Z,11.63
2023-05-19T18:26:34.647Z,8.00
2023-05-19T18:29:04.930Z,9.50
2023-05-19T18:31:32.378Z,9.13
2023-05-19T18:33:59.654Z,11.10
2023-05-19T18:36:26.931Z,9.43
2023-05-19T18:38:55.148Z,10.70
2023-05-19T18:41:22.484Z,10.65
2023-05-19T18:43:49.980Z,11.27
2023-05-19T18:46:18.125Z,11.63
2023-05-19T18:48:45.494Z,11.97
2023-05-19T18:51:15.730Z,12.20
2023-05-19T18:53:42.969Z,10.68
2023-05-19T18:56:15.062Z,9.98
2023-05-19T18:58:42.396Z,11.48
2023-05-19T19:01:09.730Z,9.97
2023-05-19T19:03:36.957Z,14.13
2023-05-19T19:06:04.222Z,13.88
2023-05-19T19:08:31.438Z,12.98
2023-05-19T19:11:01.107Z,13.55
2023-05-19T19:13:28.430Z,11.03
2023-05-19T19:15:55.642Z,14.90
2023-05-19T19:18:22.982Z,14.68
2023-05-19T19:20:50.271Z,9.88
2023-05-19T19:23:17.488Z,12.90
2023-05-19T19:25:44.712Z,10.30
2023-05-19T19:28:12.052Z,10.10
2023-05-19T19:30:39.233Z,10.35
2023-05-19T19:33:06.968Z,10.57
2023-05-19T19:35:35.009Z,14.00
2023-05-19T19:38:02.269Z,11.93
2023-05-19T19:40:29.736Z,14.65
2023-05-19T19:42:56.946Z,11.00
2023-05-19T19:45:24.112Z,10.60
2023-05-19T19:47:51.856Z,12.82
2023-05-19T19:50:19.139Z,10.90
2023-05-19T19:52:46.480Z,11.88
2023-05-19T19:55:13.849Z,14.48
2023-05-19T19:57:41.103Z,15.57
2023-05-19T20:00:09.159Z,19.15
2023-05-19T20:02:45.376Z,16.27
2023-05-19T20:05:18.986Z,16.40
2023-05-19T20:07:46.209Z,16.08
2023-05-19T20:10:13.572Z,16.50
2023-05-19T20:12:40.919Z,13.25
2023-05-19T20:15:08.767Z,12.57
2023-05-19T20:17:36.058Z,15.30
2023-05-19T20:20:08.031Z,10.85
2023-05-19T20:22:35.512Z,11.23
2023-05-19T20:25:02.862Z,10.68
2023-05-19T20:27:30.079Z,12.23
2023-05-19T20:29:57.302Z,12.65
2023-05-19T20:32:24.548Z,11.23
2023-05-19T20:34:51.831Z,13.77
2023-05-19T20:37:19.084Z,13.18
2023-05-19T20:39:46.262Z,12.30
2023-05-19T20:42:13.730Z,12.50
2023-05-19T20:44:41.586Z,10.48
2023-05-19T20:47:09.008Z,10.68
2023-05-19T20:49:36.363Z,12.75
2023-05-19T20:52:03.887Z,10.60
2023-05-19T20:54:31.073Z,11.77
2023-05-19T20:56:58.313Z,13.30
2023-05-19T20:59:26.023Z,10.85
2023-05-19T21:01:53.303Z,10.93
2023-05-19T21:04:20.550Z,12.43
2023-05-19T21:06:47.807Z,15.85
2023-05-19T21:09:15.067Z,9.65
2023-05-19T21:11:42.353Z,11.50
2023-05-19T21:14:09.634Z,10.23
2023-05-19T21:16:38.919Z,11.73
2023-05-19T21:19:06.973Z,9.98
2023-05-19T21:21:34.375Z,10.25
2023-05-19T21:24:01.515Z,10.35
2023-05-19T21:26:28.931Z,11.75
2023-05-19T21:28:56.607Z,11.97
2023-05-19T21:31:23.894Z,11.30
2023-05-19T21:33:51.060Z,12.88
2023-05-19T21:36:18.466Z,12.80
2023-05-19T21:38:46.123Z,12.18
2023-05-19T21:41:13.383Z,13.10
2023-05-19T21:43:42.092Z,14.80
2023-05-19T21:46:09.358Z,12.05
2023-05-19T21:48:36.608Z,14.13
2023-05-19T21:51:03.979Z,13.60
2023-05-19T21:53:32.592Z,13.83
2023-05-19T21:56:00.326Z,14.07
2023-05-19T21:58:27.547Z,12.38
2023-05-19T22:00:54.915Z,10.95
2023-05-19T22:03:22.399Z,11.77
2023-05-19T22:05:51.817Z,13.20
2023-05-19T22:08:20.999Z,12.43
2023-05-19T22:10:52.628Z,16.50
2023-05-19T22:13:20.327Z,13.63
2023-05-19T22:15:47.608Z,16.40
2023-05-19T22:18:14.952Z,14.03
2023-05-19T22:20:42.132Z,12.45
2023-05-19T22:23:09.429Z,11.80
2023-05-19T22:25:36.799Z,11.60
2023-05-19T22:28:05.692Z,13.82
2023-05-19T22:30:33.249Z,14.67
2023-05-19T22:33:00.647Z,12.52
2023-05-19T22:35:27.883Z,11.18
2023-05-19T22:37:55.744Z,13.45
2023-05-19T22:40:22.950Z,12.10
2023-05-19T22:42:50.120Z,13.47
2023-05-19T22:45:17.402Z,13.23
2023-05-19T22:47:44.778Z,15.23
2023-05-19T22:50:12.379Z,14.82
2023-05-19T22:52:39.628Z,12.95
2023-05-19T22:55:07.489Z,13.47
2023-05-19T22:57:34.801Z,14.30
2023-05-19T23:00:02.215Z,13.45
2023-05-19T23:02:29.534Z,13.80
2023-05-19T23:04:56.969Z,11.38
2023-05-19T23:07:24.231Z,14.00
2023-05-19T23:09:51.537Z,12.45
2023-05-19T23:12:18.724Z,13.57
2023-05-19T23:14:46.270Z,14.68
2023-05-19T23:17:13.651Z,12.63
2023-05-19T23:19:40.909Z,12.27
2023-05-19T23:22:08.093Z,13.23
2023-05-19T23:24:35.280Z,13.02
2023-05-19T23:27:02.530Z,12.23
2023-05-19T23:29:29.677Z,12.02
2023-05-19T23:31:56.997Z,13.33
2023-05-19T23:34:24.211Z,13.43
2023-05-19T23:36:51.472Z,11.35
2023-05-19T23:39:18.818Z,15.07
2023-05-19T23:41:46.190Z,15.35
2023-05-19T23:44:13.363Z,14.27
2023-05-19T23:46:41.445Z,12.82
2023-05-19T23:49:08.688Z,12.68
2023-05-19T23:51:36.106Z,15.10
2023-05-19T23:54:03.436Z,12.43
2023-05-19T23:56:30.800Z,12.90
2023-05-19T23:58:57.950Z,18.00
